Pinto Martins International Airport
SBFZ : now visible

Airfield :











YOU CAN JOIN US ON...

 
LOGIN :

Register | Disclaimer

   EN    FR    IT 

 









Legend :    VFR   Marginal VFR   IFR   Intensive IFR   Very Intensive IFR
Visi :
Ceiling :
>= 8 km
>= 3000ft
5 to 8 km
1000 to 3000 ft
1500m to 5 km
500 to 1000 ft
800 to 1500m
200 to 500 ft
< 800m
< 200 ft
Symbols :   Thunderstorms  Fog  Heavy snow  Heavy precipitations  Wind > 20 kt






- Airport Elevation : 82 ft
- IATA code : FOR


SBFZ - Pinto Martins International

CURRENT METAR :
  • 021300Z 13009KT 9999 BKN017 30/25 Q1013

EXPIRED METARs :
  • 021200Z 14009KT 9999 BKN017 29/25 Q1013
  • 021100Z 15007KT 9999 FEW020 28/24 Q1012

TAF TAF SBFZ
Valid from the 02 at 12:00 until the 03 at 12:00 UTC


021000Z 0212/0312 13010KT 9999 SCT020 TX28/0216Z TN25/0306Z
BECMG 0214/0216 SCT020 FEW025TCU
BECMG 0218/0220 9999 FEW020
PROB40 0304/0306 6000 RA BKN020 FEW030TCU
BECMG 0310/0312 FEW020 RMK PEG



MET'MAP, your aeronautical weather chart ! - Copyright ORBIFLY December 2007 - Disclaimer

ORBIFLY MET'MAP TEAM :

Programming & Development : Alexandra Zaïnal
Concept & original design : Baudouin d'Aumeries
Assistance for programming : Marc-Olivier Méhu
Technical & hardware support : Manuel Goepfert

Contact : metmap@orbifly.com




SOURCES & CREDITS :

   NOAA       Earth
Advisory